Time;durP1;ratioP1;P1;durP2;ratioP2;P2;SDS_P1;SDS_P2;PMS_P1;PMS_P2;Temp;Humidity;BMP_temperature;BMP_pressure;BME280_temperature;BME280_humidity;BME280_pressure;Samples;Min_cycle;Max_cycle;Signal;HPM_P1;HPM_P2
2020/12/03 00:00:22;;;;;;;24.92;16.42;;;;;;;2.67;82.31;97796.72;5059000;28;45210;-77
2020/12/03 00:02:47;;;;;;;26.42;16.00;;;;;;;2.69;81.70;97805.31;5054665;28;45466;-77
2020/12/03 00:05:13;;;;;;;26.52;16.77;;;;;;;2.76;81.81;97803.03;5053788;28;45404;-77
2020/12/03 00:07:38;;;;;;;26.55;16.70;;;;;;;2.73;81.65;97805.88;5059002;28;46094;-77
2020/12/03 00:10:04;;;;;;;26.13;15.38;;;;;;;2.53;83.03;97810.88;5058877;28;45666;-77
2020/12/03 00:12:29;;;;;;;26.48;15.73;;;;;;;2.58;82.49;97808.75;5059275;28;45430;-77
2020/12/03 00:14:55;;;;;;;24.52;16.60;;;;;;;2.54;82.82;97804.66;5057608;28;45540;-77
2020/12/03 00:17:20;;;;;;;24.50;15.70;;;;;;;2.48;82.66;97805.13;5059041;28;45286;-77
2020/12/03 00:19:46;;;;;;;23.73;15.85;;;;;;;2.49;82.78;97806.81;5058596;28;45391;-77
2020/12/03 00:22:11;;;;;;;22.65;14.77;;;;;;;2.45;83.58;97805.38;5054195;28;45289;-77
2020/12/03 00:24:36;;;;;;;23.05;15.45;;;;;;;2.48;82.83;97805.13;5053755;28;45205;-77
2020/12/03 00:27:10;;;;;;;26.58;16.98;;;;;;;2.59;82.42;97799.91;5058895;28;45346;-76
2020/12/03 00:29:36;;;;;;;24.40;15.70;;;;;;;2.62;82.04;97804.06;5058671;28;45231;-76
2020/12/03 00:32:02;;;;;;;24.92;15.68;;;;;;;2.65;81.85;97810.91;5058822;28;45260;-77
2020/12/03 00:34:27;;;;;;;29.13;17.27;;;;;;;2.65;82.22;97803.03;5058169;28;45313;-77
2020/12/03 00:36:53;;;;;;;31.05;17.92;;;;;;;2.60;82.29;97804.22;5058355;28;45333;-77
2020/12/03 00:39:18;;;;;;;27.70;17.60;;;;;;;2.64;81.58;97799.53;5056758;28;45429;-77
2020/12/03 00:41:48;;;;;;;28.17;17.27;;;;;;;2.65;81.73;97803.03;5058866;28;45409;-77
2020/12/03 00:44:14;;;;;;;27.75;16.83;;;;;;;2.68;81.90;97808.03;5039635;28;45338;-77
2020/12/03 00:46:39;;;;;;;27.33;16.77;;;;;;;2.66;81.64;97797.66;5048820;28;45230;-76
2020/12/03 00:49:05;;;;;;;31.48;18.27;;;;;;;2.67;81.63;97801.09;5058350;28;45351;-77
2020/12/03 00:51:30;;;;;;;27.40;17.17;;;;;;;2.68;81.65;97802.78;5058356;28;45294;-76
2020/12/03 00:53:56;;;;;;;29.35;16.67;;;;;;;2.69;81.91;97801.81;5058272;28;45412;-76
2020/12/03 00:56:21;;;;;;;28.92;17.85;;;;;;;2.72;81.42;97812.09;5058295;28;45306;-76
2020/12/03 00:58:48;;;;;;;27.42;16.55;;;;;;;2.73;81.95;97816.41;5058114;28;45269;-77
2020/12/03 01:01:18;;;;;;;23.13;15.15;;;;;;;2.63;82.79;97824.13;5058447;28;45310;-77
2020/12/03 01:03:44;;;;;;;27.40;16.83;;;;;;;2.73;82.11;97816.41;5058212;28;45368;-76
2020/12/03 01:06:10;;;;;;;22.27;14.95;;;;;;;2.69;81.67;97809.72;5057941;28;45982;-76
2020/12/03 01:08:36;;;;;;;23.77;15.25;;;;;;;2.71;81.89;97821.78;5058052;28;45275;-76
2020/12/03 01:11:03;;;;;;;22.52;14.82;;;;;;;2.63;82.16;97827.59;5058296;28;45248;-76
2020/12/03 01:13:29;;;;;;;21.95;14.57;;;;;;;2.69;81.42;97823.69;5058063;28;45331;-76
2020/12/03 01:15:56;;;;;;;22.65;14.90;;;;;;;2.63;82.25;97817.09;5058098;28;46208;-76
2020/12/03 01:18:22;;;;;;;23.40;14.50;;;;;;;2.70;81.63;97803.50;5057841;28;45316;-77
2020/12/03 01:20:47;;;;;;;24.13;14.00;;;;;;;2.74;81.22;97807.56;5057717;28;45469;-77
2020/12/03 01:23:13;;;;;;;23.33;14.82;;;;;;;2.71;81.10;97813.06;5057778;28;45467;-76
2020/12/03 01:25:38;;;;;;;21.40;14.65;;;;;;;2.69;81.11;97810.56;5057946;28;46025;-76
2020/12/03 01:28:04;;;;;;;21.00;13.75;;;;;;;2.70;81.34;97812.22;5057903;28;45248;-77
2020/12/03 01:30:29;;;;;;;21.67;13.77;;;;;;;2.74;81.42;97807.56;5058112;28;45264;-77
2020/12/03 01:32:55;;;;;;;22.13;14.30;;;;;;;2.74;81.00;97813.66;5057431;28;45420;-76
2020/12/03 01:35:21;;;;;;;21.15;14.95;;;;;;;2.74;81.24;97812.81;5057623;28;46397;-76
2020/12/03 01:37:48;;;;;;;22.27;14.40;;;;;;;2.80;80.61;97811.53;5057675;28;45222;-76
2020/12/03 01:40:16;;;;;;;27.60;17.10;;;;;;;2.79;80.76;97813.31;5057888;28;45338;-76
2020/12/03 01:42:42;;;;;;;43.47;27.65;;;;;;;2.76;80.89;97814.38;5057707;28;45320;-76
2020/12/03 01:45:45;;;;;;;30.02;17.52;;;;;;;2.75;80.54;97809.25;5055264;28;48034;-76
2020/12/03 01:48:20;;;;;;;22.92;14.63;;;;;;;2.71;80.18;97802.56;5046641;28;45327;-76
2020/12/03 01:50:46;;;;;;;21.67;13.88;;;;;;;2.69;80.33;97793.94;5057356;28;45289;-76
2020/12/03 01:53:16;;;;;;;23.08;14.80;;;;;;;2.65;80.49;97782.88;5056568;28;45623;-76
2020/12/03 01:55:41;;;;;;;21.83;14.55;;;;;;;2.66;80.68;97786.31;5057242;28;45431;-77
2020/12/03 01:58:41;;;;;;;23.33;13.90;;;;;;;2.62;80.81;97778.66;5057553;28;45299;-76
2020/12/03 02:01:08;;;;;;;20.17;13.60;;;;;;;2.65;81.08;97777.63;5041019;28;45340;-77
2020/12/03 02:03:34;;;;;;;20.15;12.68;;;;;;;2.68;80.87;97782.63;5057354;28;45205;-76
2020/12/03 02:05:59;;;;;;;20.65;13.48;;;;;;;2.59;81.31;97780.69;5057193;28;45428;-76
2020/12/03 02:08:25;;;;;;;21.80;13.70;;;;;;;2.59;80.67;97781.53;5057228;28;45272;-76
2020/12/03 02:10:50;;;;;;;21.30;14.27;;;;;;;2.61;81.25;97771.75;5057516;28;45423;-76
2020/12/03 02:13:16;;;;;;;21.02;13.68;;;;;;;2.59;80.90;97775.44;5057182;28;45475;-76
2020/12/03 02:15:41;;;;;;;22.80;14.35;;;;;;;2.59;81.28;97765.78;5057409;28;45382;-77
2020/12/03 02:18:08;;;;;;;21.13;14.10;;;;;;;2.56;81.05;97766.00;5057112;28;45298;-76
2020/12/03 02:20:34;;;;;;;21.67;13.90;;;;;;;2.56;81.27;97762.53;5057151;28;45365;-76
2020/12/03 02:23:07;;;;;;;20.30;13.38;;;;;;;2.49;81.11;97746.44;5056975;28;45386;-76
2020/12/03 02:25:33;;;;;;;20.35;12.93;;;;;;;2.45;80.67;97747.63;5057164;28;45486;-76
2020/12/03 02:27:58;;;;;;;20.85;14.30;;;;;;;2.48;81.08;97750.84;5057038;28;45288;-76
2020/12/03 02:30:24;;;;;;;20.65;13.27;;;;;;;2.49;81.26;97749.06;5057448;28;45360;-77
2020/12/03 02:32:49;;;;;;;20.48;13.25;;;;;;;2.48;81.15;97744.75;5056569;28;45615;-77
2020/12/03 02:35:14;;;;;;;20.67;13.80;;;;;;;2.51;81.08;97751.56;5056946;28;45416;-76
2020/12/03 02:37:41;;;;;;;21.90;13.68;;;;;;;2.52;80.85;97751.44;5056946;28;45308;-76
2020/12/03 02:40:08;;;;;;;20.80;13.18;;;;;;;2.50;81.13;97750.72;5057195;28;45292;-77
2020/12/03 02:42:34;;;;;;;20.15;13.32;;;;;;;2.50;81.06;97753.34;5055624;28;45545;-77
2020/12/03 02:44:59;;;;;;;24.25;14.65;;;;;;;2.51;80.95;97747.16;5056875;28;45420;-77
2020/12/03 02:47:24;;;;;;;23.83;14.23;;;;;;;2.55;80.93;97742.50;5056757;28;45288;-77
2020/12/03 02:49:50;;;;;;;21.70;13.95;;;;;;;2.51;80.96;97738.44;5055825;28;45299;-76
2020/12/03 02:52:19;;;;;;;23.08;14.18;;;;;;;2.55;81.45;97729.34;5056658;28;45195;-77
2020/12/03 02:54:45;;;;;;;20.73;13.57;;;;;;;2.46;80.63;97728.28;5056715;28;45338;-76
2020/12/03 02:57:11;;;;;;;21.83;14.52;;;;;;;2.46;81.00;97726.50;5058438;28;45434;-77
2020/12/03 02:59:37;;;;;;;19.83;13.40;;;;;;;2.51;81.06;97726.16;5047574;28;45408;-76
2020/12/03 03:02:03;;;;;;;19.45;12.80;;;;;;;2.49;80.45;97728.06;5055380;28;45502;-76
2020/12/03 03:04:29;;;;;;;20.33;13.10;;;;;;;2.50;80.42;97721.84;5060079;28;45254;-76
2020/12/03 03:06:55;;;;;;;22.73;13.50;;;;;;;2.51;80.67;97728.78;5059710;28;45221;-77
2020/12/03 03:09:22;;;;;;;20.73;13.35;;;;;;;2.55;80.45;97729.34;5055360;28;45372;-77
2020/12/03 03:11:47;;;;;;;21.88;13.75;;;;;;;2.56;80.56;97728.41;5055765;28;45536;-77
2020/12/03 03:14:13;;;;;;;22.88;14.27;;;;;;;2.48;80.46;97734.25;5059967;28;45476;-77
2020/12/03 03:16:39;;;;;;;18.80;13.07;;;;;;;2.49;80.39;97735.94;5059853;28;45384;-77
2020/12/03 03:19:04;;;;;;;22.48;14.10;;;;;;;2.49;80.39;97730.69;5059987;28;45349;-77
2020/12/03 03:21:31;;;;;;;20.42;12.43;;;;;;;2.52;80.33;97726.97;5058319;28;45335;-76
2020/12/03 03:23:57;;;;;;;20.15;13.15;;;;;;;2.49;80.30;97728.06;5059558;28;46186;-76
2020/12/03 03:26:22;;;;;;;20.73;13.05;;;;;;;2.51;79.99;97736.66;5059583;28;45281;-77
2020/12/03 03:28:48;;;;;;;18.02;12.70;;;;;;;2.47;79.56;97722.09;5060050;28;45344;-76
2020/12/03 03:31:14;;;;;;;19.70;12.55;;;;;;;2.33;81.33;97707.38;5059688;28;45419;-76
2020/12/03 03:33:39;;;;;;;19.33;12.73;;;;;;;2.40;81.29;97697.28;5057909;28;47185;-76
2020/12/03 03:36:05;;;;;;;21.05;13.35;;;;;;;2.32;80.95;97696.06;5054531;28;45317;-76
2020/12/03 03:38:30;;;;;;;18.35;12.35;;;;;;;2.24;81.97;97694.97;5049945;28;45272;-77
2020/12/03 03:40:56;;;;;;;20.17;12.65;;;;;;;2.26;81.84;97686.03;5055636;28;45450;-76
2020/12/03 03:43:21;;;;;;;20.05;13.75;;;;;;;2.28;82.44;97680.66;5059174;28;45332;-76
2020/12/03 03:45:47;;;;;;;20.75;13.93;;;;;;;2.35;81.07;97676.63;5059233;28;45245;-76
2020/12/03 03:48:12;;;;;;;20.92;12.80;;;;;;;2.44;80.63;97673.28;5059516;28;45486;-76
2020/12/03 03:50:38;;;;;;;19.33;12.50;;;;;;;2.39;80.54;97672.81;5056031;28;45677;-76
2020/12/03 03:53:03;;;;;;;21.92;14.20;;;;;;;2.40;80.06;97669.22;5059039;28;45646;-76
2020/12/03 03:55:29;;;;;;;21.10;13.40;;;;;;;2.29;80.48;97664.81;5058871;28;45269;-76
2020/12/03 03:57:54;;;;;;;20.08;12.90;;;;;;;2.30;80.46;97671.75;5059359;28;45261;-76
2020/12/03 04:00:21;;;;;;;21.83;12.98;;;;;;;2.37;80.43;97660.75;5045533;28;45512;-76
2020/12/03 04:02:48;;;;;;;18.40;12.25;;;;;;;2.31;80.45;97662.06;5059233;28;46028;-76
2020/12/03 04:05:15;;;;;;;20.00;13.27;;;;;;;2.03;81.09;97656.31;5058684;28;45430;-76
2020/12/03 04:07:40;;;;;;;21.00;14.02;;;;;;;2.07;81.79;97662.13;5058923;28;45249;-76
2020/12/03 04:10:06;;;;;;;20.65;13.63;;;;;;;2.00;82.28;97654.75;5057264;28;45243;-76
2020/12/03 04:12:33;;;;;;;21.08;13.45;;;;;;;1.87;81.79;97646.97;5059163;28;45272;-76
2020/12/03 04:15:00;;;;;;;20.20;13.80;;;;;;;1.91;81.95;97639.69;5054251;28;45550;-76
2020/12/03 04:17:29;;;;;;;21.55;13.85;;;;;;;2.04;81.51;97632.56;5050901;28;45339;-76
2020/12/03 04:19:55;;;;;;;24.45;15.00;;;;;;;2.07;81.19;97635.91;5057286;28;45553;-76
2020/12/03 04:22:22;;;;;;;21.65;14.13;;;;;;;1.84;81.62;97649.00;5058724;28;45228;-76
2020/12/03 04:24:48;;;;;;;24.45;14.00;;;;;;;1.91;81.26;97639.69;5058464;28;45296;-76
2020/12/03 04:27:14;;;;;;;21.38;13.85;;;;;;;1.93;80.80;97650.09;5059092;28;45324;-76
2020/12/03 04:29:39;;;;;;;20.60;12.80;;;;;;;1.92;81.27;97641.38;5057422;28;45482;-76
2020/12/03 04:32:05;;;;;;;20.13;13.25;;;;;;;1.91;81.26;97649.38;5058327;28;45530;-76
2020/12/03 04:34:30;;;;;;;19.88;12.85;;;;;;;1.91;81.36;97641.50;5058654;28;45324;-76
2020/12/03 04:36:56;;;;;;;20.52;13.23;;;;;;;1.71;81.51;97641.19;5058712;28;45237;-77
2020/12/03 04:39:21;;;;;;;21.08;13.60;;;;;;;1.83;81.36;97637.69;5058580;28;45396;-76
2020/12/03 04:41:48;;;;;;;21.05;13.07;;;;;;;1.71;81.51;97625.47;5058695;28;45989;-76
2020/12/03 04:44:36;;;;;;;18.42;11.50;;;;;;;1.58;81.62;97630.81;5058465;28;45337;-76
2020/12/03 04:47:22;;;;;;;19.83;12.65;;;;;;;0.87;84.38;97627.16;5055435;28;45211;-76
2020/12/03 04:50:25;;;;;;;16.17;10.00;;;;;;;1.41;82.65;97634.69;5058223;28;45339;-77
2020/12/03 04:53:25;;;;;;;13.27;8.48;;;;;;;1.32;82.62;97636.19;5056890;28;45272;-77
2020/12/03 04:56:22;;;;;;;13.48;8.48;;;;;;;0.52;83.65;97638.38;5036949;28;45624;-80
2020/12/03 04:59:04;;;;;;;12.75;7.68;;;;;;;0.18;85.51;97643.31;5055128;28;45555;-79
2020/12/03 05:01:41;;;;;;;15.75;8.80;;;;;;;0.46;84.60;97638.78;5045713;28;45526;-77
2020/12/03 05:04:20;;;;;;;11.23;7.68;;;;;;;0.62;85.34;97641.16;5056504;28;45479;-77
2020/12/03 05:06:57;;;;;;;16.63;9.10;;;;;;;1.05;82.94;97645.09;5054687;28;45312;-79
2020/12/03 05:09:54;;;;;;;14.32;9.45;;;;;;;1.29;82.45;97632.00;5056951;28;45301;-77
2020/12/03 05:12:39;;;;;;;17.95;10.23;;;;;;;1.40;82.23;97636.47;5056640;28;45400;-79
2020/12/03 05:15:28;;;;;;;16.90;10.32;;;;;;;1.42;81.55;97647.69;5057258;28;45362;-78
2020/12/03 05:18:06;;;;;;;18.10;12.15;;;;;;;1.26;82.53;97649.72;5058088;28;45476;-77
2020/12/03 05:20:40;;;;;;;20.23;13.15;;;;;;;1.44;82.15;97639.69;5056456;28;45451;-78
2020/12/03 05:23:17;;;;;;;21.70;13.48;;;;;;;1.38;82.42;97648.84;5057555;28;45268;-79
2020/12/03 05:25:45;;;;;;;23.17;13.88;;;;;;;1.43;82.30;97641.50;5052072;28;47906;-78
2020/12/03 05:28:32;;;;;;;24.70;14.65;;;;;;;1.48;81.87;97640.31;5049753;28;45280;-78
2020/12/03 05:31:12;;;;;;;22.23;13.63;;;;;;;1.29;82.32;97636.41;5054579;28;45399;-78
2020/12/03 05:33:38;;;;;;;23.40;15.05;;;;;;;0.82;83.74;97644.97;5054575;28;45447;-79
2020/12/03 05:36:03;;;;;;;20.55;13.18;;;;;;;1.14;82.99;97638.38;5056995;28;46149;-80
2020/12/03 05:38:29;;;;;;;18.25;10.98;;;;;;;1.04;82.86;97640.81;5057785;28;45294;-78
2020/12/03 05:41:01;;;;;;;17.45;11.68;;;;;;;1.05;82.79;97642.50;5052189;28;45335;-79
2020/12/03 05:43:28;;;;;;;20.13;12.15;;;;;;;1.20;82.37;97650.19;5045602;28;45525;-79
2020/12/03 05:45:56;;;;;;;19.55;12.45;;;;;;;1.31;81.90;97642.38;5054728;28;46067;-80
2020/12/03 05:48:22;;;;;;;22.77;13.60;;;;;;;1.31;81.42;97635.34;5057288;28;45328;-79
2020/12/03 05:50:48;;;;;;;23.05;14.57;;;;;;;1.21;82.57;97633.50;5048591;28;45585;-79
2020/12/03 05:53:20;;;;;;;24.52;14.70;;;;;;;1.21;82.49;97630.88;5057178;28;45567;-79
2020/12/03 05:55:47;;;;;;;28.63;18.17;;;;;;;1.26;83.14;97636.63;5056937;28;46019;-79
2020/12/03 05:58:26;;;;;;;25.83;16.40;;;;;;;1.28;83.20;97635.59;5052287;28;45453;-79
2020/12/03 06:01:08;;;;;;;25.75;16.80;;;;;;;1.21;84.32;97641.38;5056894;28;45225;-79
2020/12/03 06:03:55;;;;;;;24.95;16.17;;;;;;;1.30;83.58;97653.78;5054698;28;45360;-79
2020/12/03 06:06:48;;;;;;;24.00;15.55;;;;;;;1.39;82.93;97658.38;5051775;28;45572;-79
2020/12/03 06:09:37;;;;;;;24.88;15.48;;;;;;;1.28;83.90;97653.06;5056110;28;45392;-79
2020/12/03 06:12:22;;;;;;;27.27;17.17;;;;;;;1.28;84.83;97666.16;5067104;28;45650;-79
2020/12/03 06:15:17;;;;;;;25.23;15.60;;;;;;;1.18;85.48;97663.41;5053354;28;45368;-79
2020/12/03 06:18:17;;;;;;;24.33;16.60;;;;;;;1.47;84.11;97665.66;5041471;28;45470;-79
2020/12/03 06:20:50;;;;;;;28.08;17.58;;;;;;;1.55;83.71;97676.41;5045165;28;45548;-79
2020/12/03 06:23:48;;;;;;;25.15;16.08;;;;;;;1.60;83.64;97682.16;5059407;28;45379;-79
2020/12/03 06:26:35;;;;;;;26.83;15.02;;;;;;;1.63;83.07;97675.88;5046717;28;45334;-78
2020/12/03 06:29:27;;;;;;;23.25;14.95;;;;;;;1.42;84.25;97675.66;5071790;28;46124;-79
2020/12/03 06:32:20;;;;;;;23.67;14.55;;;;;;;1.52;83.76;97678.44;5064422;28;45350;-79
2020/12/03 06:34:57;;;;;;;25.33;15.70;;;;;;;1.61;83.13;97672.53;5074319;28;45472;-79
2020/12/03 06:37:30;;;;;;;23.13;14.50;;;;;;;1.65;82.99;97670.50;5070827;28;45610;-79
2020/12/03 06:40:02;;;;;;;24.55;15.23;;;;;;;1.62;82.75;97673.34;5055134;28;46515;-79
2020/12/03 06:42:41;;;;;;;22.60;14.73;;;;;;;1.54;83.01;97676.56;5060307;28;45884;-79
2020/12/03 06:45:09;;;;;;;22.38;14.57;;;;;;;1.45;82.81;97673.66;5062606;27;45442;-79
2020/12/03 06:48:00;;;;;;;21.65;14.68;;;;;;;1.37;82.74;97668.16;5070358;28;45553;-79
2020/12/03 06:50:43;;;;;;;22.75;14.32;;;;;;;1.40;82.22;97660.06;5059448;28;46292;-80
2020/12/03 06:53:20;;;;;;;22.40;14.07;;;;;;;1.33;82.44;97658.00;5061174;28;45364;-79
2020/12/03 06:55:49;;;;;;;22.40;13.88;;;;;;;1.28;82.44;97658.31;5055734;28;45493;-81
2020/12/03 06:58:33;;;;;;;22.13;13.82;;;;;;;1.17;82.82;97665.16;5070965;28;45293;-80
2020/12/03 07:01:43;;;;;;;23.05;14.13;;;;;;;1.20;82.81;97671.13;5052411;28;45214;-80
2020/12/03 07:04:20;;;;;;;22.90;14.17;;;;;;;0.54;84.50;97669.63;5023562;28;45777;-85
2020/12/03 07:07:10;;;;;;;22.80;14.50;;;;;;;0.66;85.03;97666.16;5057737;28;45458;-79
2020/12/03 07:09:44;;;;;;;24.15;14.23;;;;;;;0.36;86.70;97664.75;5070340;27;45630;-79
2020/12/03 07:12:22;;;;;;;24.02;15.07;;;;;;;0.80;84.92;97659.97;5046693;28;45592;-79
2020/12/03 07:14:50;;;;;;;22.40;13.80;;;;;;;0.91;84.30;97651.34;5059316;28;45798;-79
2020/12/03 07:17:27;;;;;;;22.73;13.65;;;;;;;1.01;83.58;97641.03;5059605;28;45495;-79
2020/12/03 07:20:02;;;;;;;25.63;14.07;;;;;;;1.02;83.20;97643.56;5072308;28;45214;-79
2020/12/03 07:22:37;;;;;;;21.20;13.05;;;;;;;0.99;83.29;97645.53;5071722;28;46405;-79
2020/12/03 07:25:05;;;;;;;21.17;13.30;;;;;;;0.89;83.58;97645.38;5071962;27;45356;-79
2020/12/03 07:28:04;;;;;;;20.08;12.40;;;;;;;0.93;83.22;97646.00;5072472;28;45331;-79
2020/12/03 07:30:50;;;;;;;21.33;12.77;;;;;;;0.96;83.25;97648.38;5071130;28;45346;-80
2020/12/03 07:33:36;;;;;;;22.42;12.98;;;;;;;0.92;82.94;97647.78;5047823;28;45407;-78
2020/12/03 07:36:24;;;;;;;19.70;11.95;;;;;;;0.89;83.11;97650.63;5060034;28;45439;-77
2020/12/03 07:39:04;;;;;;;19.92;11.98;;;;;;;0.77;83.77;97652.31;5062667;28;45519;-78
2020/12/03 07:41:50;;;;;;;21.55;12.27;;;;;;;0.90;82.87;97654.06;5053109;28;45448;-79
2020/12/03 07:44:44;;;;;;;19.27;11.68;;;;;;;0.54;84.88;97653.94;5056763;28;47033;-79
2020/12/03 07:47:21;;;;;;;19.02;11.25;;;;;;;0.87;83.88;97648.09;5058711;28;45445;-80
2020/12/03 07:49:49;;;;;;;19.38;11.70;;;;;;;0.71;84.44;97647.53;5059883;28;45466;-81
2020/12/03 07:52:18;;;;;;;19.40;11.52;;;;;;;0.60;84.98;97642.22;5067984;28;45538;-78
2020/12/03 07:54:43;;;;;;;20.05;13.77;;;;;;;0.70;84.37;97635.38;5067958;28;45945;-78
2020/12/03 07:57:23;;;;;;;18.90;11.63;;;;;;;0.00;86.43;97621.88;5071825;28;45269;-78
2020/12/03 07:59:49;;;;;;;18.90;11.63;;;;;;;0.47;85.95;97616.91;5059518;28;45365;-79
2020/12/03 08:02:53;;;;;;;17.77;11.85;;;;;;;0.67;84.43;97625.13;5064361;28;45407;-79
2020/12/03 08:06:05;;;;;;;38.65;24.02;;;;;;;0.10;85.93;97616.84;5063939;27;45224;-79
2020/12/03 08:08:34;;;;;;;27.40;17.58;;;;;;;0.52;84.75;97614.81;5051652;28;45436;-79
2020/12/03 08:11:00;;;;;;;29.58;17.75;;;;;;;0.64;84.02;97604.41;5069752;28;45313;-79
2020/12/03 08:13:54;;;;;;;23.52;14.45;;;;;;;0.79;83.75;97595.47;5061745;27;45260;-79
2020/12/03 08:16:43;;;;;;;21.17;13.52;;;;;;;0.84;82.96;97577.63;5063327;27;45402;-79
2020/12/03 08:19:22;;;;;;;21.70;11.85;;;;;;;0.88;82.53;97578.22;5065632;27;45412;-79
2020/12/03 08:21:48;;;;;;;16.40;10.20;;;;;;;0.94;81.87;97566.50;5072650;28;45457;-79
2020/12/03 08:24:25;;;;;;;18.20;11.07;;;;;;;0.95;82.36;97565.53;5062996;28;45348;-79
2020/12/03 08:27:05;;;;;;;15.32;8.63;;;;;;;0.96;81.78;97551.50;5055753;28;46209;-79
2020/12/03 08:29:36;;;;;;;10.18;6.50;;;;;;;0.93;81.76;97541.25;5059049;27;45521;-79
2020/12/03 08:32:02;;;;;;;10.63;6.55;;;;;;;0.80;81.91;97538.69;5058215;28;45340;-79
2020/12/03 08:34:37;;;;;;;9.32;6.07;;;;;;;0.79;81.72;97530.00;5061278;28;45460;-79
2020/12/03 08:37:05;;;;;;;10.10;5.85;;;;;;;0.90;81.17;97536.25;5068313;28;46402;-79
2020/12/03 08:39:31;;;;;;;13.27;8.15;;;;;;;0.82;81.97;97535.03;5062874;28;45303;-78
2020/12/03 08:41:58;;;;;;;15.27;8.50;;;;;;;0.87;82.18;97534.66;5073084;27;45427;-79
2020/12/03 08:44:24;;;;;;;13.57;8.32;;;;;;;0.61;82.80;97526.13;5057705;28;45452;-79
2020/12/03 08:46:50;;;;;;;27.95;15.73;;;;;;;0.32;85.31;97523.78;5057687;28;45907;-80
2020/12/03 08:49:23;;;;;;;25.60;14.52;;;;;;;0.05;85.68;97525.66;5062334;28;45271;-81
2020/12/03 08:51:56;;;;;;;25.55;15.63;;;;;;;0.19;86.45;97529.91;5058991;27;45482;-81
2020/12/03 08:54:32;;;;;;;27.38;17.30;;;;;;;0.20;86.70;97528.13;5058479;28;45508;-79
2020/12/03 08:57:04;;;;;;;31.75;19.25;;;;;;;0.27;86.37;97518.91;5058992;28;45289;-81
2020/12/03 08:59:44;;;;;;;31.23;18.70;;;;;;;-0.20;88.35;97527.34;5056287;28;45454;-80
2020/12/03 09:02:10;;;;;;;33.60;20.13;;;;;;;-0.12;88.66;97523.34;5053573;28;45654;-80
2020/12/03 09:04:43;;;;;;;35.25;19.83;;;;;;;-0.06;88.81;97510.72;5042112;28;45554;-80
2020/12/03 09:07:13;;;;;;;31.33;18.35;;;;;;;0.09;88.62;97519.28;5067088;28;45436;-80
2020/12/03 09:09:44;;;;;;;33.97;18.63;;;;;;;0.20;87.45;97499.38;5051643;28;45412;-81
2020/12/03 09:12:12;;;;;;;32.75;18.67;;;;;;;0.13;86.71;97494.56;5045123;28;45450;-81
2020/12/03 09:14:41;;;;;;;28.65;18.17;;;;;;;0.01;88.48;97494.59;5064761;28;45439;-80
2020/12/03 09:17:13;;;;;;;31.38;17.15;;;;;;;-0.03;88.27;97497.44;5056632;28;45309;-81
2020/12/03 09:19:38;;;;;;;27.85;15.60;;;;;;;0.22;86.47;97493.06;5056180;28;45569;-79
2020/12/03 09:22:06;;;;;;;36.38;18.42;;;;;;;0.23;86.03;97491.31;5057174;28;45325;-80
2020/12/03 09:24:32;;;;;;;28.33;15.88;;;;;;;0.21;85.99;97498.41;5065415;28;45343;-80
2020/12/03 09:27:03;;;;;;;25.90;14.00;;;;;;;0.12;86.23;97499.91;5045405;28;46182;-79
2020/12/03 09:29:29;;;;;;;22.55;12.02;;;;;;;0.51;85.38;97491.91;5057816;28;45469;-79
2020/12/03 09:32:07;;;;;;;38.45;20.85;;;;;;;0.62;85.33;97491.16;5056044;28;45389;-80
2020/12/03 09:34:36;;;;;;;31.60;17.40;;;;;;;0.05;87.02;97498.66;5057519;28;45676;-79
2020/12/03 09:37:04;;;;;;;34.25;18.90;;;;;;;0.29;87.24;97496.91;5056613;28;45873;-79
2020/12/03 09:39:31;;;;;;;30.52;17.60;;;;;;;0.22;87.90;97493.06;5057771;28;45407;-80
2020/12/03 09:41:58;;;;;;;27.73;15.40;;;;;;;0.09;88.07;97494.88;5056613;28;45459;-80
2020/12/03 09:44:25;;;;;;;28.20;16.75;;;;;;;0.18;88.19;97502.06;5056519;28;45281;-79
2020/12/03 09:46:54;;;;;;;27.80;16.55;;;;;;;0.18;87.68;97498.63;5056813;28;45490;-79
2020/12/03 09:49:21;;;;;;;31.30;17.27;;;;;;;0.33;87.45;97509.78;5056365;28;45669;-79
2020/12/03 09:51:47;;;;;;;26.17;16.40;;;;;;;0.48;87.32;97500.84;5057190;28;45328;-79
2020/12/03 09:54:13;;;;;;;26.67;16.70;;;;;;;0.49;86.93;97507.75;5056323;28;45313;-79
2020/12/03 09:56:40;;;;;;;27.80;16.67;;;;;;;0.62;86.64;97522.56;5056382;28;45968;-79
2020/12/03 09:59:12;;;;;;;26.02;16.63;;;;;;;0.65;86.30;97511.88;5058072;28;45504;-79
2020/12/03 10:02:04;;;;;;;25.65;16.50;;;;;;;0.66;85.99;97505.69;5053429;28;45421;-79
2020/12/03 10:05:00;;;;;;;28.88;16.45;;;;;;;0.60;86.54;97520.03;5057667;28;45507;-80
2020/12/03 10:07:28;;;;;;;27.13;16.25;;;;;;;0.47;87.01;97525.34;5052404;28;46175;-79
2020/12/03 10:10:15;;;;;;;28.77;15.65;;;;;;;0.66;87.20;97524.81;5057183;28;45371;-80
2020/12/03 10:13:10;;;;;;;25.85;16.10;;;;;;;0.90;85.49;97520.53;5053132;28;45289;-79
2020/12/03 10:15:50;;;;;;;24.77;15.88;;;;;;;0.90;85.38;97516.16;5062274;28;45355;-79
2020/12/03 10:18:21;;;;;;;25.77;15.35;;;;;;;1.18;84.68;97506.22;5058361;28;45432;-79
2020/12/03 10:20:51;;;;;;;22.70;14.23;;;;;;;1.16;83.70;97495.84;5061337;28;45330;-80
2020/12/03 10:23:36;;;;;;;27.73;15.02;;;;;;;1.64;83.49;97493.19;5061510;28;45367;-79
2020/12/03 10:26:11;;;;;;;24.38;14.10;;;;;;;2.27;80.38;97484.81;5062099;28;45418;-79
2020/12/03 10:28:41;;;;;;;20.65;13.15;;;;;;;2.32;78.78;97474.78;5049854;28;46688;-79
2020/12/03 10:31:07;;;;;;;21.00;13.50;;;;;;;3.04;78.18;97472.50;5062519;28;45329;-79
2020/12/03 10:33:35;;;;;;;21.60;13.35;;;;;;;3.37;76.25;97457.50;5060007;28;45277;-79
2020/12/03 10:36:10;;;;;;;18.20;12.20;;;;;;;3.49;75.79;97458.25;5061956;28;45558;-79
2020/12/03 10:38:46;;;;;;;18.35;11.18;;;;;;;3.54;75.39;97449.97;5057196;28;45766;-79
2020/12/03 10:41:12;;;;;;;18.50;11.95;;;;;;;3.65;76.37;97434.94;5058075;28;45421;-79
2020/12/03 10:43:42;;;;;;;16.20;10.98;;;;;;;3.60;73.73;97437.16;5061388;28;45414;-79
2020/12/03 10:46:15;;;;;;;17.27;10.73;;;;;;;3.55;74.07;97420.09;5060296;28;45400;-79
2020/12/03 10:48:47;;;;;;;16.83;10.80;;;;;;;3.21;75.21;97413.28;5058923;28;45398;-79
2020/12/03 10:51:13;;;;;;;16.35;10.55;;;;;;;3.04;76.83;97409.44;5058964;28;45474;-79
2020/12/03 10:53:44;;;;;;;15.10;10.38;;;;;;;3.17;76.04;97409.25;5070347;28;45428;-81
2020/12/03 10:56:12;;;;;;;12.13;7.97;;;;;;;2.99;75.11;97399.34;5059582;28;45330;-79
2020/12/03 10:58:48;;;;;;;14.40;8.60;;;;;;;3.99;74.87;97393.50;5062139;28;46024;-78
2020/12/03 11:01:29;;;;;;;12.38;8.38;;;;;;;5.34;70.68;97392.75;5071466;28;45473;-79
2020/12/03 11:03:58;;;;;;;13.52;8.80;;;;;;;5.37;69.05;97386.34;5058819;28;45297;-79
2020/12/03 11:06:29;;;;;;;15.50;9.35;;;;;;;6.07;65.71;97377.16;5058967;28;45648;-79
2020/12/03 11:08:56;;;;;;;14.00;8.77;;;;;;;5.55;64.78;97366.16;5049102;28;45841;-80
2020/12/03 11:11:23;;;;;;;13.10;8.95;;;;;;;6.88;63.47;97343.72;5069765;28;45344;-80
2020/12/03 11:13:49;;;;;;;14.35;9.55;;;;;;;7.36;61.22;97327.44;5050473;28;45533;-81
2020/12/03 11:16:21;;;;;;;13.65;9.05;;;;;;;7.61;58.46;97320.44;5063924;28;45439;-80
2020/12/03 11:18:48;;;;;;;16.27;9.57;;;;;;;7.91;61.03;97312.91;5067412;28;46627;-79
2020/12/03 11:21:21;;;;;;;13.25;8.80;;;;;;;8.60;58.07;97306.59;5068842;28;45490;-79
2020/12/03 11:23:56;;;;;;;12.45;8.27;;;;;;;7.14;60.29;97296.13;5069175;28;45388;-79
2020/12/03 11:26:26;;;;;;;11.05;8.05;;;;;;;7.18;62.29;97286.03;5056687;28;45545;-79
2020/12/03 11:28:52;;;;;;;13.60;8.80;;;;;;;8.84;55.26;97289.00;5068585;28;46137;-80
2020/12/03 11:31:17;;;;;;;13.40;8.18;;;;;;;11.16;52.39;97287.59;5063777;28;45482;-80
2020/12/03 11:33:51;;;;;;;14.55;8.43;;;;;;;13.29;44.78;97283.72;5063568;27;45335;-80
2020/12/03 11:36:16;;;;;;;12.25;8.18;;;;;;;14.97;40.98;97269.97;5069702;28;45422;-81
2020/12/03 11:38:54;;;;;;;11.93;8.75;;;;;;;17.79;34.66;97273.41;5058640;28;46093;-80
2020/12/03 11:48:58;;;;;;;11.05;7.45;;;;;;;8.15;53.19;97261.00;5061756;28;46178;-82
2020/12/03 11:51:31;;;;;;;12.65;8.30;;;;;;;7.45;54.96;97247.13;5065488;27;45292;-83
2020/12/03 11:54:01;;;;;;;10.80;6.85;;;;;;;7.17;56.84;97228.84;5078551;27;45480;-87
2020/12/03 11:56:28;;;;;;;12.90;7.70;;;;;;;6.69;57.63;97234.59;5063574;28;45274;-86